Time;durP1;ratioP1;P1;durP2;ratioP2;P2;SDS_P1;SDS_P2;PMS_P1;PMS_P2;Temp;Humidity;BMP_temperature;BMP_pressure;BME280_temperature;BME280_humidity;BME280_pressure;Samples;Min_cycle;Max_cycle;Signal;HPM_P1;HPM_P2
2023/12/22 00:00:42;;;;;;;2.30;1.60;;;;;;;4.64;100.00;93599.94;110056;1277;22397;-88
2023/12/22 00:03:28;;;;;;;2.20;1.10;;;;;;;4.63;100.00;93599.38;110297;1277;138308;-88
2023/12/22 00:05:54;;;;;;;1.60;1.00;;;;;;;4.59;100.00;93609.42;110171;1277;22410;-89
2023/12/22 00:08:23;;;;;;;1.60;1.10;;;;;;;4.56;100.00;93621.31;109975;1274;139772;-88
2023/12/22 00:10:50;;;;;;;2.90;1.90;;;;;;;4.53;100.00;93620.38;110050;1275;22189;-88
2023/12/22 00:13:16;;;;;;;3.70;2.30;;;;;;;4.50;100.00;93624.88;110061;1277;22422;-89
2023/12/22 00:15:42;;;;;;;2.90;2.60;;;;;;;4.46;100.00;93630.26;109932;1271;138427;-89
2023/12/22 00:18:09;;;;;;;4.60;2.80;;;;;;;4.43;100.00;93638.23;110175;1277;22446;-89
2023/12/22 00:20:35;;;;;;;3.90;2.50;;;;;;;4.40;100.00;93640.55;110054;1276;138463;-88
2023/12/22 00:23:01;;;;;;;3.90;2.60;;;;;;;4.38;100.00;93637.23;110222;1274;22282;-89
2023/12/22 00:25:27;;;;;;;3.90;2.40;;;;;;;4.36;100.00;93638.40;110042;1276;22242;-89
2023/12/22 00:27:53;;;;;;;3.80;1.40;;;;;;;4.34;100.00;93640.55;110016;1277;137903;-89
2023/12/22 00:30:19;;;;;;;6.70;2.50;;;;;;;4.32;100.00;93630.05;110145;1274;23141;-88
2023/12/22 00:32:45;;;;;;;3.60;2.70;;;;;;;4.31;100.00;93634.57;109942;1273;138348;-88
2023/12/22 00:35:11;;;;;;;4.20;2.60;;;;;;;4.31;100.00;93640.11;110128;1276;22867;-89
2023/12/22 00:37:37;;;;;;;3.20;2.30;;;;;;;4.30;100.00;93636.64;110088;1274;138702;-88
2023/12/22 00:40:06;;;;;;;2.90;2.40;;;;;;;4.28;100.00;93627.64;110079;1276;22190;-88
2023/12/22 00:42:33;;;;;;;4.00;2.00;;;;;;;4.27;100.00;93626.03;110215;1270;22221;-89
2023/12/22 00:44:59;;;;;;;12.40;9.90;;;;;;;4.27;100.00;93627.21;109932;1278;138368;-89
2023/12/22 00:47:25;;;;;;;15.30;7.40;;;;;;;4.26;100.00;93625.88;110200;1273;22202;-89
2023/12/22 00:49:51;;;;;;;9.40;4.10;;;;;;;4.25;100.00;93636.65;110092;1274;138339;-90
2023/12/22 00:52:17;;;;;;;5.30;2.10;;;;;;;4.22;100.00;93649.39;110086;1278;22290;-89
2023/12/22 00:54:43;;;;;;;3.50;2.10;;;;;;;4.15;100.00;93647.81;110143;1271;23140;-88
2023/12/22 00:57:09;;;;;;;4.00;2.70;;;;;;;4.12;100.00;93657.92;110038;1272;138741;-89
2023/12/22 00:59:35;;;;;;;4.30;2.40;;;;;;;4.08;100.00;93670.01;110312;1277;22193;-89
2023/12/22 01:02:01;;;;;;;3.50;2.10;;;;;;;4.06;100.00;93690.60;110190;1277;139119;-89
2023/12/22 01:04:28;;;;;;;5.00;2.60;;;;;;;4.05;100.00;93709.73;110365;1276;22090;-88
2023/12/22 01:06:54;;;;;;;4.00;1.50;;;;;;;4.01;100.00;93730.13;110388;1270;23155;-89
2023/12/22 01:09:20;;;;;;;3.50;1.90;;;;;;;3.97;100.00;93749.00;110036;1270;138480;-88
2023/12/22 01:11:47;;;;;;;2.60;1.30;;;;;;;3.94;100.00;93752.34;110327;1277;22260;-89
2023/12/22 01:14:14;;;;;;;2.40;1.00;;;;;;;3.88;100.00;93745.75;110015;1277;138460;-89
2023/12/22 01:16:40;;;;;;;2.50;1.20;;;;;;;3.80;100.00;93741.06;110307;1277;22234;-90
2023/12/22 01:19:06;;;;;;;3.80;1.30;;;;;;;3.73;100.00;93745.98;110304;1270;22853;-89
2023/12/22 01:21:32;;;;;;;2.10;1.40;;;;;;;3.70;100.00;93742.20;110250;1272;138208;-89
2023/12/22 01:23:59;;;;;;;17.60;8.50;;;;;;;3.69;100.00;93743.11;110124;1270;22375;-88
2023/12/22 01:26:25;;;;;;;5.40;2.00;;;;;;;3.71;100.00;93750.56;110002;1277;139211;-89
2023/12/22 01:28:51;;;;;;;3.50;1.70;;;;;;;3.71;100.00;93754.84;110142;1277;22328;-89
2023/12/22 01:31:17;;;;;;;3.00;1.40;;;;;;;3.71;100.00;93749.86;110308;1267;22964;-89
2023/12/22 01:33:43;;;;;;;3.30;1.40;;;;;;;3.72;100.00;93744.98;109956;1270;138449;-89
2023/12/22 01:36:09;;;;;;;1.90;1.30;;;;;;;3.72;100.00;93743.96;110132;1270;22433;-89
2023/12/22 01:38:35;;;;;;;1.90;1.20;;;;;;;3.71;100.00;93743.58;109938;1269;139021;-89
2023/12/22 01:41:01;;;;;;;2.90;1.20;;;;;;;3.72;100.00;93751.31;110241;1270;22196;-89
2023/12/22 01:43:27;;;;;;;4.80;1.70;;;;;;;3.72;100.00;93753.61;110130;1269;22466;-89
2023/12/22 01:45:56;;;;;;;4.10;2.10;;;;;;;3.70;100.00;93755.35;110009;1270;137853;-89
2023/12/22 01:48:24;;;;;;;4.70;2.50;;;;;;;3.64;100.00;93755.46;110158;1276;22441;-89
2023/12/22 01:50:53;;;;;;;7.20;3.50;;;;;;;3.58;100.00;93747.53;109939;1277;138109;-89
2023/12/22 01:53:19;;;;;;;4.80;4.20;;;;;;;3.55;100.00;93750.98;110045;1270;22339;-89
2023/12/22 01:55:49;;;;;;;18.90;13.20;;;;;;;3.52;100.00;93753.24;109953;1273;139755;-89
2023/12/22 01:58:15;;;;;;;7.80;4.90;;;;;;;3.50;100.00;93752.46;110030;1270;22317;-89
2023/12/22 02:00:41;;;;;;;5.10;2.80;;;;;;;3.49;100.00;93756.77;110083;1274;22280;-89
2023/12/22 02:03:07;;;;;;;7.10;4.10;;;;;;;3.48;100.00;93752.60;109966;1276;138574;-89
2023/12/22 02:05:34;;;;;;;2.80;2.20;;;;;;;3.48;100.00;93758.83;110368;1270;22374;-89
2023/12/22 02:08:00;;;;;;;3.50;2.00;;;;;;;3.46;100.00;93756.83;110236;1271;138671;-89
2023/12/22 02:10:26;;;;;;;3.30;1.80;;;;;;;3.44;100.00;93759.52;110150;1275;22220;-89
2023/12/22 02:12:54;;;;;;;4.60;2.30;;;;;;;3.42;100.00;93763.48;110189;1273;23067;-89
2023/12/22 02:15:20;;;;;;;4.20;2.50;;;;;;;3.43;100.00;93767.98;110189;1277;138282;-89
2023/12/22 02:18:01;;;;;;;2.50;1.60;;;;;;;3.42;100.00;93763.80;110378;1270;22365;-89
2023/12/22 02:20:27;;;;;;;2.90;1.30;;;;;;;3.41;100.00;93764.48;110021;1276;138205;-89
2023/12/22 02:22:54;;;;;;;4.40;1.10;;;;;;;3.39;100.00;93763.89;110148;1273;22908;-89
2023/12/22 02:25:20;;;;;;;2.50;1.30;;;;;;;3.38;100.00;93775.00;110063;1278;23323;-90
2023/12/22 02:27:48;;;;;;;2.40;1.60;;;;;;;3.35;100.00;93775.40;110043;1276;138658;-89
2023/12/22 02:30:24;;;;;;;2.60;1.20;;;;;;;3.32;100.00;93774.54;110078;1270;22239;-89
2023/12/22 02:32:51;;;;;;;2.90;1.70;;;;;;;3.30;100.00;93773.80;109986;1272;138385;-88
2023/12/22 02:35:19;;;;;;;2.80;1.20;;;;;;;3.27;100.00;93772.27;110093;1270;22223;-89
2023/12/22 02:37:46;;;;;;;4.10;1.40;;;;;;;3.26;100.00;93771.48;109958;1273;138369;-89
2023/12/22 02:40:12;;;;;;;3.40;1.30;;;;;;;3.22;100.00;93766.41;110133;1272;22918;-89
2023/12/22 02:42:38;;;;;;;3.40;1.70;;;;;;;3.18;100.00;93766.98;110070;1273;22228;-89
2023/12/22 02:45:05;;;;;;;10.50;5.70;;;;;;;3.15;100.00;93759.38;110027;1273;138910;-89
2023/12/22 02:47:34;;;;;;;6.00;3.60;;;;;;;3.12;100.00;93772.52;110035;1278;22185;-88
2023/12/22 02:50:00;;;;;;;4.70;2.20;;;;;;;3.10;100.00;93756.66;110049;1271;139085;-88
2023/12/22 02:52:26;;;;;;;6.50;2.20;;;;;;;3.10;100.00;93766.09;110057;1277;22592;-88
2023/12/22 02:54:52;;;;;;;4.30;1.50;;;;;;;3.08;100.00;93767.86;110067;1274;22323;-89
2023/12/22 02:57:18;;;;;;;4.10;2.20;;;;;;;3.06;100.00;93769.36;110026;1277;139005;-89
2023/12/22 02:59:45;;;;;;;5.50;2.50;;;;;;;3.06;100.00;93768.41;110350;1277;22444;-88
2023/12/22 03:02:12;;;;;;;3.80;1.60;;;;;;;3.04;100.00;93774.48;110226;1270;138498;-89
2023/12/22 03:04:38;;;;;;;4.40;1.70;;;;;;;3.02;100.00;93771.30;110185;1270;23177;-88
2023/12/22 03:07:04;;;;;;;4.00;2.00;;;;;;;3.00;100.00;93777.70;110168;1277;22952;-88
2023/12/22 03:09:30;;;;;;;2.70;1.40;;;;;;;2.97;100.00;93780.04;110019;1276;138428;-89
2023/12/22 03:12:01;;;;;;;3.80;1.60;;;;;;;2.93;100.00;93775.73;110132;1273;22444;-88
2023/12/22 03:14:33;;;;;;;5.20;1.80;;;;;;;2.91;100.00;93779.90;110206;1270;138795;-88
2023/12/22 03:16:59;;;;;;;4.60;1.80;;;;;;;2.88;100.00;93774.78;110323;1270;22400;-90
2023/12/22 03:19:26;;;;;;;3.70;1.60;;;;;;;2.88;100.00;93767.37;110083;1277;22963;-89
2023/12/22 03:21:52;;;;;;;4.30;1.30;;;;;;;2.88;100.00;93769.85;109952;1277;139322;-89
2023/12/22 03:24:19;;;;;;;6.10;1.70;;;;;;;2.90;99.77;93768.11;110121;1277;23073;-89
2023/12/22 03:26:46;;;;;;;3.80;1.90;;;;;;;2.89;98.48;93769.06;110199;1277;137982;-89
2023/12/22 03:29:12;;;;;;;4.50;1.50;;;;;;;2.89;98.99;93775.17;110184;1277;22412;-88
2023/12/22 03:31:38;;;;;;;7.60;2.00;;;;;;;2.90;99.06;93769.80;110044;1271;138564;-88
2023/12/22 03:34:04;;;;;;;3.70;1.70;;;;;;;2.87;98.92;93773.35;110111;1276;22221;-89
2023/12/22 03:36:30;;;;;;;5.60;1.80;;;;;;;2.86;98.79;93779.56;110135;1271;23559;-89
2023/12/22 03:38:56;;;;;;;5.90;1.90;;;;;;;2.87;99.04;93765.04;110026;1277;138366;-88
2023/12/22 03:41:22;;;;;;;3.60;1.50;;;;;;;2.87;99.02;93771.15;110159;1277;22285;-89
2023/12/22 03:43:49;;;;;;;4.90;2.90;;;;;;;2.86;98.71;93775.73;110184;1269;139320;-88
2023/12/22 03:46:15;;;;;;;7.60;1.90;;;;;;;2.85;98.75;93781.92;110172;1269;22225;-89
2023/12/22 03:48:41;;;;;;;3.60;1.50;;;;;;;2.83;98.89;93777.44;110203;1273;22480;-89
2023/12/22 03:51:07;;;;;;;5.10;1.90;;;;;;;2.81;98.82;93779.02;110226;1262;138297;-89
2023/12/22 03:53:34;;;;;;;8.10;2.90;;;;;;;2.80;98.70;93769.79;110309;1265;22202;-90
2023/12/22 03:55:59;;;;;;;5.90;2.80;;;;;;;2.80;99.14;93766.87;110191;1277;138544;-89
2023/12/22 03:58:26;;;;;;;8.70;2.10;;;;;;;2.78;98.71;93773.26;110271;1258;23117;-89
2023/12/22 04:00:52;;;;;;;8.90;2.70;;;;;;;2.76;98.77;93768.90;110125;1271;22417;-89
2023/12/22 04:03:18;;;;;;;8.00;2.30;;;;;;;2.75;98.14;93762.55;110272;1271;138232;-89
2023/12/22 04:05:44;;;;;;;9.70;2.10;;;;;;;2.76;98.21;93765.46;110119;1277;23261;-89
2023/12/22 04:08:14;;;;;;;5.10;2.20;;;;;;;2.78;96.91;93757.59;110031;1269;138531;-89
2023/12/22 04:10:40;;;;;;;6.30;1.80;;;;;;;2.79;96.77;93755.39;110077;1264;23107;-89
2023/12/22 04:13:06;;;;;;;8.40;2.10;;;;;;;2.78;96.54;93746.55;110118;1269;22215;-89
2023/12/22 04:15:33;;;;;;;4.50;1.80;;;;;;;2.80;96.60;93732.90;110007;1267;136908;-89
2023/12/22 04:17:59;;;;;;;4.40;1.50;;;;;;;2.79;96.61;93727.45;110155;1278;22521;-89
2023/12/22 04:20:25;;;;;;;6.60;2.10;;;;;;;2.79;96.21;93736.25;109949;1277;138159;-88
2023/12/22 04:22:51;;;;;;;6.80;1.70;;;;;;;2.79;96.16;93741.23;110314;1270;22343;-89
2023/12/22 04:25:17;;;;;;;6.80;2.40;;;;;;;2.78;94.79;93738.59;110353;1264;22257;-89
2023/12/22 04:27:43;;;;;;;19.20;7.60;;;;;;;2.78;95.76;93732.80;109962;1276;138134;-89
2023/12/22 04:30:10;;;;;;;8.30;2.80;;;;;;;2.78;95.48;93731.09;110370;1270;22416;-89
2023/12/22 04:32:36;;;;;;;40.80;16.10;;;;;;;2.78;95.59;93736.42;110128;1277;137965;-89
2023/12/22 04:35:03;;;;;;;30.60;11.70;;;;;;;2.77;95.12;93740.36;110170;1270;22273;-89
2023/12/22 04:37:29;;;;;;;16.00;5.30;;;;;;;2.75;94.99;93740.45;110076;1270;22201;-89
2023/12/22 04:39:55;;;;;;;22.40;6.60;;;;;;;2.74;94.36;93734.70;109915;1278;138336;-89
2023/12/22 04:42:21;;;;;;;30.30;10.20;;;;;;;2.73;95.20;93735.96;110162;1272;22521;-90
2023/12/22 04:44:48;;;;;;;22.70;7.00;;;;;;;2.75;95.25;93733.63;110148;1277;138828;-89
2023/12/22 04:47:14;;;;;;;14.40;5.20;;;;;;;2.73;94.75;93730.91;110115;1271;22224;-89
2023/12/22 04:49:40;;;;;;;11.80;3.30;;;;;;;2.73;93.97;93736.67;110049;1265;138579;-89
2023/12/22 04:52:07;;;;;;;41.10;12.80;;;;;;;2.72;94.30;93724.14;110073;1278;22267;-89
2023/12/22 04:54:33;;;;;;;24.90;9.70;;;;;;;2.71;94.66;93737.23;110110;1278;22254;-89
2023/12/22 04:56:59;;;;;;;30.30;8.00;;;;;;;2.70;94.69;93735.14;110003;1274;138565;-89
2023/12/22 04:59:25;;;;;;;27.20;9.00;;;;;;;2.69;94.38;93736.33;110038;1279;22688;-88
2023/12/22 05:01:51;;;;;;;17.30;5.40;;;;;;;2.66;94.59;93726.39;109919;1278;138582;-89
2023/12/22 05:04:17;;;;;;;24.30;6.60;;;;;;;2.64;94.74;93722.17;110007;1278;22242;-89
2023/12/22 05:06:45;;;;;;;26.90;8.00;;;;;;;2.63;95.10;93728.45;110006;1274;22210;-88
2023/12/22 05:09:12;;;;;;;18.80;6.00;;;;;;;2.63;94.57;93741.86;109834;1279;139347;-89
2023/12/22 05:11:39;;;;;;;5.50;1.80;;;;;;;2.63;94.56;93751.88;109976;1278;23134;-89
2023/12/22 05:14:06;;;;;;;48.00;13.30;;;;;;;2.62;94.13;93744.30;109893;1270;138552;-89
2023/12/22 05:16:32;;;;;;;9.50;3.60;;;;;;;2.63;94.19;93760.11;109932;1276;22263;-89
2023/12/22 05:18:58;;;;;;;14.30;3.40;;;;;;;2.65;94.38;93754.44;110026;1279;22235;-89
2023/12/22 05:21:24;;;;;;;28.60;8.20;;;;;;;2.66;94.22;93751.36;109908;1272;138560;-89
2023/12/22 05:23:51;;;;;;;24.40;7.70;;;;;;;2.67;94.54;93753.80;109954;1272;23004;-89
2023/12/22 05:26:20;;;;;;;229.90;78.00;;;;;;;2.69;93.92;93761.30;109991;1277;138517;-89
2023/12/22 05:28:46;;;;;;;83.80;20.60;;;;;;;2.70;93.38;93747.88;110068;1278;23140;-89
2023/12/22 05:31:12;;;;;;;9.20;3.80;;;;;;;2.71;92.76;93766.41;110058;1274;22264;-89
2023/12/22 05:33:39;;;;;;;10.40;3.40;;;;;;;2.71;91.51;93802.28;109983;1278;138526;-89
2023/12/22 05:36:06;;;;;;;10.70;4.10;;;;;;;2.72;91.84;93807.80;109992;1278;22204;-89
2023/12/22 05:38:32;;;;;;;15.80;6.40;;;;;;;2.72;92.18;93815.05;109918;1278;138074;-89
2023/12/22 05:40:58;;;;;;;18.00;6.00;;;;;;;2.72;92.04;93829.41;110019;1275;22573;-89
2023/12/22 05:43:25;;;;;;;5.70;2.40;;;;;;;2.69;90.53;93851.79;110088;1270;22344;-89
2023/12/22 05:45:51;;;;;;;8.60;2.40;;;;;;;2.65;88.04;93876.08;109924;1274;137633;-89
2023/12/22 05:48:17;;;;;;;5.80;2.10;;;;;;;2.61;87.80;93875.37;109993;1275;22928;-89
2023/12/22 05:50:43;;;;;;;5.30;2.10;;;;;;;2.58;86.75;93879.40;109961;1277;138499;-89
2023/12/22 05:53:10;;;;;;;5.80;2.00;;;;;;;2.52;86.64;93880.89;110034;1272;22229;-88
2023/12/22 05:55:36;;;;;;;7.60;2.00;;;;;;;2.46;87.03;93878.48;109917;1272;138694;-89
2023/12/22 05:58:02;;;;;;;6.20;2.50;;;;;;;2.40;85.22;93884.52;110226;1271;22375;-89
2023/12/22 06:00:28;;;;;;;7.30;1.80;;;;;;;2.33;83.31;93878.63;110020;1270;22202;-88
2023/12/22 06:02:55;;;;;;;5.90;1.80;;;;;;;2.25;84.04;93875.84;109970;1278;138301;-89
2023/12/22 06:05:22;;;;;;;4.60;1.70;;;;;;;2.21;83.90;93873.41;109976;1278;22284;-89
2023/12/22 06:07:48;;;;;;;5.70;2.00;;;;;;;2.19;84.82;93871.80;110020;1272;138691;-89
2023/12/22 06:10:14;;;;;;;4.50;1.90;;;;;;;2.17;84.60;93864.58;110025;1278;22239;-89
2023/12/22 06:12:41;;;;;;;14.40;5.20;;;;;;;2.16;85.64;93855.48;110291;1276;22524;-89
2023/12/22 06:15:08;;;;;;;21.40;7.80;;;;;;;2.16;86.12;93848.69;109956;1273;138528;-88
2023/12/22 06:17:34;;;;;;;7.10;2.60;;;;;;;2.14;83.16;93843.98;110229;1272;22907;-89
2023/12/22 06:20:00;;;;;;;6.50;3.10;;;;;;;2.08;84.04;93845.54;109916;1274;138100;-88
2023/12/22 06:22:26;;;;;;;47.80;12.40;;;;;;;2.06;84.56;93842.70;110088;1273;22344;-89
2023/12/22 06:24:52;;;;;;;27.90;7.50;;;;;;;2.07;85.98;93819.73;110050;1274;22414;-88
2023/12/22 06:27:18;;;;;;;22.70;10.20;;;;;;;2.08;87.00;93852.27;109997;1276;138630;-90
2023/12/22 06:29:45;;;;;;;24.60;12.20;;;;;;;2.06;88.53;93846.98;110116;1275;22234;-89
2023/12/22 06:32:12;;;;;;;22.40;9.70;;;;;;;2.05;90.26;93847.54;110049;1278;138627;-89
2023/12/22 06:34:38;;;;;;;31.60;12.60;;;;;;;2.07;91.23;93852.63;110054;1274;22327;-89
2023/12/22 06:37:04;;;;;;;51.50;16.80;;;;;;;2.08;92.21;93847.73;110195;1278;22261;-89
2023/12/22 06:39:31;;;;;;;28.10;10.60;;;;;;;2.08;92.52;93845.21;110123;1278;138513;-89
2023/12/22 06:41:57;;;;;;;16.60;6.30;;;;;;;2.07;92.54;93852.77;110068;1274;22266;-89
2023/12/22 06:44:25;;;;;;;13.00;6.60;;;;;;;2.06;92.48;93856.52;109888;1274;138338;-88
2023/12/22 06:46:52;;;;;;;16.30;6.50;;;;;;;2.02;92.62;93860.48;110124;1278;22420;-89
2023/12/22 06:49:18;;;;;;;18.90;6.60;;;;;;;2.00;92.92;93867.66;110011;1274;22216;-89
2023/12/22 06:51:44;;;;;;;44.80;13.00;;;;;;;1.99;92.74;93865.80;109921;1278;138128;-88
2023/12/22 06:54:10;;;;;;;37.40;11.50;;;;;;;1.97;92.94;93881.21;110147;1278;22981;-89
2023/12/22 06:56:36;;;;;;;13.30;4.50;;;;;;;1.93;93.02;93878.95;109955;1276;139025;-89
2023/12/22 06:59:02;;;;;;;25.10;8.90;;;;;;;1.88;93.21;93882.21;110012;1277;22259;-89
2023/12/22 07:01:31;;;;;;;5.30;2.40;;;;;;;1.86;93.96;93879.91;110131;1278;22218;-88
2023/12/22 07:04:00;;;;;;;15.80;5.80;;;;;;;1.83;94.26;93879.12;110118;1273;22315;-89
2023/12/22 07:06:28;;;;;;;7.30;2.60;;;;;;;1.80;94.52;93879.07;110042;1274;22209;-89
2023/12/22 07:09:16;;;;;;;13.60;5.50;;;;;;;1.80;94.55;93878.60;109892;1278;138326;-89
2023/12/22 07:11:52;;;;;;;10.10;4.10;;;;;;;1.80;94.38;93879.63;110037;1278;22201;-89
2023/12/22 07:14:19;;;;;;;23.70;7.60;;;;;;;1.79;94.48;93886.16;109902;1274;139451;-89
2023/12/22 07:16:45;;;;;;;11.90;4.90;;;;;;;1.79;94.08;93880.02;110064;1278;23123;-89
2023/12/22 07:19:12;;;;;;;7.80;3.30;;;;;;;1.80;93.80;93886.71;110095;1278;22323;-89
2023/12/22 07:21:41;;;;;;;21.50;8.40;;;;;;;1.83;93.65;93889.64;110008;1274;138163;-89
2023/12/22 07:24:07;;;;;;;45.30;13.90;;;;;;;1.86;93.76;93881.54;110149;1277;22263;-89
2023/12/22 07:26:34;;;;;;;30.00;9.60;;;;;;;1.90;93.61;93881.63;109985;1274;138218;-89
2023/12/22 07:29:00;;;;;;;20.30;8.00;;;;;;;1.94;93.85;93891.17;110084;1270;22465;-89
2023/12/22 07:31:26;;;;;;;21.40;8.90;;;;;;;1.96;93.52;93890.02;110000;1278;22672;-89
2023/12/22 07:33:52;;;;;;;10.80;4.80;;;;;;;1.99;93.23;93877.23;109960;1274;138469;-89
2023/12/22 07:36:18;;;;;;;28.90;12.70;;;;;;;2.03;93.06;93880.28;110026;1278;22383;-89
2023/12/22 07:38:44;;;;;;;6.50;3.20;;;;;;;2.07;92.93;93888.48;109990;1273;138599;-89
2023/12/22 07:41:10;;;;;;;7.80;3.60;;;;;;;2.11;92.87;93889.02;110101;1271;22301;-90
2023/12/22 07:43:37;;;;;;;24.90;14.70;;;;;;;2.15;92.97;93889.48;110005;1270;138925;-88
2023/12/22 07:46:03;;;;;;;4.50;1.80;;;;;;;2.17;92.53;93891.58;110145;1276;22208;-89
2023/12/22 07:48:29;;;;;;;5.00;2.30;;;;;;;2.17;92.36;93900.13;110118;1272;22536;-89
2023/12/22 07:50:55;;;;;;;5.20;2.40;;;;;;;2.18;92.29;93900.48;110001;1275;138654;-89
2023/12/22 07:53:21;;;;;;;8.10;4.10;;;;;;;2.20;92.33;93901.27;110171;1272;22402;-89
2023/12/22 07:55:47;;;;;;;12.30;4.40;;;;;;;2.21;92.02;93903.69;110039;1275;138274;-89
2023/12/22 07:58:13;;;;;;;8.40;3.50;;;;;;;2.23;91.92;93914.53;110195;1278;22337;-89
2023/12/22 08:00:39;;;;;;;10.00;5.50;;;;;;;2.25;92.06;93913.04;110214;1274;22328;-89
2023/12/22 08:03:06;;;;;;;9.00;4.30;;;;;;;2.26;92.25;93914.54;109897;1278;138877;-89
2023/12/22 08:05:33;;;;;;;16.70;6.50;;;;;;;2.26;92.09;93913.08;110256;1271;23088;-88
2023/12/22 08:07:59;;;;;;;8.80;4.00;;;;;;;2.27;92.11;93910.25;110119;1278;138918;-89
2023/12/22 08:10:27;;;;;;;11.40;5.40;;;;;;;2.27;91.84;93914.42;110298;1276;23211;-89
2023/12/22 08:12:53;;;;;;;11.50;5.70;;;;;;;2.27;91.76;93903.46;110090;1275;22503;-89
2023/12/22 08:15:19;;;;;;;12.00;4.50;;;;;;;2.27;91.50;93905.87;110014;1270;138678;-89
2023/12/22 08:17:49;;;;;;;7.90;4.00;;;;;;;2.27;90.93;93898.02;110111;1278;22173;-89
2023/12/22 08:20:19;;;;;;;6.60;2.70;;;;;;;2.25;91.04;93904.99;109938;1278;139250;-89
2023/12/22 08:22:46;;;;;;;6.20;3.30;;;;;;;2.24;91.04;93907.05;110085;1278;22370;-88
2023/12/22 08:25:13;;;;;;;8.80;3.50;;;;;;;2.23;90.76;93908.27;110066;1278;22219;-89
2023/12/22 08:27:39;;;;;;;6.80;3.00;;;;;;;2.21;90.95;93906.40;110138;1270;139019;-89
2023/12/22 08:30:06;;;;;;;11.80;4.90;;;;;;;2.21;90.30;93908.81;110282;1278;22795;-89
2023/12/22 08:32:33;;;;;;;24.40;9.10;;;;;;;2.21;90.40;93912.27;109909;1278;138077;-90
2023/12/22 08:34:59;;;;;;;13.90;5.90;;;;;;;2.21;90.28;93915.00;110229;1271;22330;-89
2023/12/22 08:37:25;;;;;;;8.00;3.30;;;;;;;2.20;89.86;93915.63;110107;1272;22558;-89
2023/12/22 08:39:52;;;;;;;5.90;2.80;;;;;;;2.18;90.01;93916.16;110018;1277;138275;-88
2023/12/22 08:42:18;;;;;;;3.50;2.10;;;;;;;2.17;89.66;93928.51;110205;1278;22985;-89
2023/12/22 08:44:44;;;;;;;8.20;3.90;;;;;;;2.12;87.96;93925.13;109933;1278;138951;-89
2023/12/22 08:47:10;;;;;;;12.60;5.20;;;;;;;2.06;87.98;93934.70;110058;1270;22489;-89
2023/12/22 08:49:37;;;;;;;5.40;2.80;;;;;;;2.01;87.05;93942.53;109899;1270;139108;-89
2023/12/22 08:52:06;;;;;;;5.40;2.50;;;;;;;1.95;87.40;93943.75;110098;1272;22527;-88
2023/12/22 08:54:33;;;;;;;5.40;2.80;;;;;;;1.89;88.11;93948.64;110009;1270;22246;-89
2023/12/22 08:57:00;;;;;;;5.60;2.60;;;;;;;1.82;90.00;93955.81;109965;1278;138593;-88
2023/12/22 08:59:26;;;;;;;4.90;2.90;;;;;;;1.71;90.77;93954.20;110098;1274;22181;-89
2023/12/22 09:01:52;;;;;;;6.70;3.50;;;;;;;1.65;91.41;93947.46;110005;1271;138507;-89
2023/12/22 09:04:20;;;;;;;8.20;3.10;;;;;;;1.64;92.14;93945.21;110071;1277;23226;-89
2023/12/22 09:06:47;;;;;;;13.70;6.30;;;;;;;1.61;92.70;93942.19;110044;1274;22945;-89
2023/12/22 09:09:12;;;;;;;9.90;4.60;;;;;;;1.58;93.33;93942.99;109905;1275;139472;-89
2023/12/22 09:11:40;;;;;;;4.80;2.30;;;;;;;1.55;94.19;93940.81;110018;1276;22363;-89
2023/12/22 09:14:10;;;;;;;7.80;4.70;;;;;;;1.54;94.82;93939.85;110135;1278;138565;-88
2023/12/22 09:16:37;;;;;;;5.50;3.20;;;;;;;1.53;95.38;93933.23;110043;1278;22211;-88
2023/12/22 09:19:03;;;;;;;13.90;5.80;;;;;;;1.54;96.24;93922.92;110037;1274;23368;-89
2023/12/22 09:21:29;;;;;;;9.80;4.60;;;;;;;1.55;96.56;93911.04;110093;1271;139421;-89
2023/12/22 09:23:55;;;;;;;13.70;5.80;;;;;;;1.58;97.34;93909.48;110081;1274;22241;-89
2023/12/22 09:26:21;;;;;;;8.10;3.50;;;;;;;1.61;97.16;93912.52;110040;1266;139025;-89
2023/12/22 09:28:47;;;;;;;13.40;7.00;;;;;;;1.64;96.36;93915.33;110224;1266;23051;-89
2023/12/22 09:31:13;;;;;;;13.20;6.10;;;;;;;1.69;95.87;93908.94;110149;1274;22447;-89
2023/12/22 09:33:43;;;;;;;15.20;6.80;;;;;;;1.75;95.62;93911.28;110133;1265;138442;-89
2023/12/22 09:36:09;;;;;;;11.00;5.30;;;;;;;1.82;95.32;93902.43;110146;1274;22460;-89
2023/12/22 09:38:36;;;;;;;15.80;5.40;;;;;;;1.90;94.98;93900.15;109967;1274;137466;-90
2023/12/22 09:41:03;;;;;;;13.30;5.00;;;;;;;2.00;94.89;93894.65;110024;1274;22225;-89
2023/12/22 09:43:29;;;;;;;10.00;3.80;;;;;;;2.09;94.28;93895.11;109985;1279;22410;-89
2023/12/22 09:45:55;;;;;;;13.10;4.80;;;;;;;2.16;93.18;93881.80;109987;1272;138503;-89
2023/12/22 09:48:27;;;;;;;11.80;4.10;;;;;;;2.23;93.08;93887.37;110227;1274;22108;-90
2023/12/22 09:50:56;;;;;;;7.40;2.70;;;;;;;2.31;91.88;93894.43;110044;1274;138659;-90
2023/12/22 09:53:22;;;;;;;6.10;2.30;;;;;;;2.36;91.42;93897.17;109960;1274;23151;-90
2023/12/22 09:55:49;;;;;;;7.00;2.70;;;;;;;2.40;92.12;93887.44;110005;1279;138764;-89
2023/12/22 09:58:16;;;;;;;5.80;2.20;;;;;;;2.38;92.61;93901.19;110028;1278;22442;-89
2023/12/22 10:00:42;;;;;;;13.40;4.00;;;;;;;2.33;93.27;93889.36;110102;1274;22237;-89
2023/12/22 10:03:10;;;;;;;6.50;2.60;;;;;;;2.31;93.11;93879.49;109900;1275;139218;-89
2023/12/22 10:05:36;;;;;;;8.00;3.50;;;;;;;2.29;92.77;93897.38;110150;1274;22307;-89
2023/12/22 10:08:03;;;;;;;8.20;3.70;;;;;;;2.28;92.84;93911.91;110036;1274;138334;-89
2023/12/22 10:10:32;;;;;;;9.10;4.90;;;;;;;2.27;93.38;93902.73;110017;1278;22255;-89
2023/12/22 10:12:59;;;;;;;11.30;4.60;;;;;;;2.28;93.19;93909.45;110042;1274;22213;-89
2023/12/22 10:15:25;;;;;;;9.90;3.10;;;;;;;2.30;93.72;93908.48;109909;1274;139576;-89
2023/12/22 10:17:54;;;;;;;7.20;2.90;;;;;;;2.31;93.09;93897.16;109876;1279;22410;-88
2023/12/22 10:20:20;;;;;;;9.60;3.80;;;;;;;2.32;93.23;93897.12;109824;1278;176107;-89
2023/12/22 10:22:46;;;;;;;5.80;2.80;;;;;;;2.33;93.45;93898.77;110181;1274;22213;-88
2023/12/22 10:25:17;;;;;;;8.00;3.60;;;;;;;2.30;93.42;93884.77;110012;1279;22612;-89
2023/12/22 10:27:43;;;;;;;6.20;3.10;;;;;;;2.28;93.28;93874.63;109871;1274;138259;-89
2023/12/22 10:30:09;;;;;;;8.00;2.00;;;;;;;2.27;93.00;93888.58;110028;1278;22227;-89
2023/12/22 10:32:42;;;;;;;7.80;2.80;;;;;;;2.25;93.54;93905.23;110035;1278;138225;-89
2023/12/22 10:35:08;;;;;;;4.90;1.70;;;;;;;2.29;94.17;93910.70;109981;1274;23348;-89
2023/12/22 10:37:34;;;;;;;6.00;2.70;;;;;;;2.36;93.72;93914.86;109924;1271;140844;-90
2023/12/22 10:40:00;;;;;;;7.50;3.20;;;;;;;2.45;93.75;93910.89;110021;1278;22200;-89
2023/12/22 10:42:27;;;;;;;6.30;3.20;;;;;;;2.50;93.59;93904.52;110146;1272;22242;-89
2023/12/22 10:44:53;;;;;;;6.10;2.20;;;;;;;2.51;93.14;93897.38;109999;1276;138619;-90
2023/12/22 10:47:21;;;;;;;4.00;2.00;;;;;;;2.51;92.90;93887.28;110024;1278;23057;-89
2023/12/22 10:49:47;;;;;;;5.20;2.20;;;;;;;2.51;92.78;93876.04;109917;1277;138338;-88
2023/12/22 10:52:17;;;;;;;6.30;2.60;;;;;;;2.51;92.81;93879.46;110190;1278;22278;-89
2023/12/22 10:54:43;;;;;;;3.60;2.50;;;;;;;2.51;92.83;93864.09;110003;1274;22222;-88
2023/12/22 10:57:10;;;;;;;7.80;2.70;;;;;;;2.52;92.95;93859.01;110016;1278;138403;-89
2023/12/22 10:59:39;;;;;;;5.40;3.00;;;;;;;2.50;92.28;93867.41;110084;1278;22942;-89
2023/12/22 11:02:04;;;;;;;6.10;2.60;;;;;;;2.47;92.25;93874.11;109994;1278;139169;-89
2023/12/22 11:04:31;;;;;;;3.70;2.90;;;;;;;2.43;92.36;93879.56;110055;1277;22242;-89
2023/12/22 11:06:58;;;;;;;6.20;4.00;;;;;;;2.41;92.33;93887.00;110193;1277;22302;-89
2023/12/22 11:09:27;;;;;;;5.40;2.50;;;;;;;2.36;92.43;93898.39;109897;1279;138381;-89
2023/12/22 11:11:53;;;;;;;4.40;2.10;;;;;;;2.31;93.04;93895.62;110187;1270;22193;-89
2023/12/22 11:14:21;;;;;;;4.50;2.40;;;;;;;2.22;93.87;93895.69;110081;1279;138679;-88
2023/12/22 11:16:48;;;;;;;5.40;2.50;;;;;;;2.17;94.73;93888.27;110207;1271;22970;-88
2023/12/22 11:19:14;;;;;;;3.40;1.90;;;;;;;2.11;95.21;93875.27;110173;1276;22443;-90
2023/12/22 11:21:40;;;;;;;6.00;2.40;;;;;;;2.05;95.82;93858.33;109938;1277;139890;-89